Time;durP1;ratioP1;P1;durP2;ratioP2;P2;SDS_P1;SDS_P2;PMS_P1;PMS_P2;Temp;Humidity;BMP_temperature;BMP_pressure;BME280_temperature;BME280_humidity;BME280_pressure;Samples;Min_cycle;Max_cycle;Signal;HPM_P1;HPM_P2
2022/05/21 00:00:14;;;;;;;0.28;0.20;;;10.50;99.90;;;;;;5057375;28;20036;-70
2022/05/21 00:02:39;;;;;;;0.20;0.20;;;10.60;99.90;;;;;;5034622;28;20398;-72
2022/05/21 00:05:06;;;;;;;0.20;0.20;;;10.60;99.90;;;;;;5067664;28;20107;-70
2022/05/21 00:07:31;;;;;;;0.28;0.20;;;10.50;99.90;;;;;;5046837;28;20053;-70
2022/05/21 00:09:57;;;;;;;0.20;0.20;;;10.50;99.90;;;;;;5053388;28;20033;-72
2022/05/21 00:12:23;;;;;;;1.27;0.40;;;10.60;99.90;;;;;;5057780;28;20512;-70
2022/05/21 00:14:49;;;;;;;0.30;0.20;;;10.60;99.90;;;;;;5042868;28;20028;-69
2022/05/21 00:17:14;;;;;;;1.15;0.40;;;10.50;99.90;;;;;;5055050;28;20405;-70
2022/05/21 00:19:40;;;;;;;0.22;0.22;;;10.60;99.90;;;;;;5055484;28;20113;-70
2022/05/21 00:22:06;;;;;;;0.52;0.30;;;10.60;99.90;;;;;;5058598;28;20025;-70
2022/05/21 00:24:31;;;;;;;0.88;0.30;;;10.60;99.90;;;;;;5047726;28;20465;-70
2022/05/21 00:26:57;;;;;;;0.93;0.55;;;10.60;99.90;;;;;;5058098;28;20037;-70
2022/05/21 00:29:26;;;;;;;0.47;0.30;;;10.70;99.90;;;;;;5052685;28;20037;-70
2022/05/21 00:31:51;;;;;;;0.73;0.35;;;10.70;99.90;;;;;;5054856;28;20031;-69
2022/05/21 00:34:17;;;;;;;0.82;0.77;;;10.80;99.90;;;;;;5052554;28;20076;-70
2022/05/21 00:36:43;;;;;;;0.47;0.28;;;10.80;99.90;;;;;;5051976;28;20473;-70
2022/05/21 00:39:09;;;;;;;1.30;0.50;;;10.90;99.90;;;;;;5053703;28;20021;-70
2022/05/21 00:41:34;;;;;;;1.02;0.47;;;10.90;99.90;;;;;;5058407;28;20029;-70
2022/05/21 00:44:02;;;;;;;0.70;0.30;;;11.00;99.90;;;;;;5048805;28;20025;-70
2022/05/21 00:46:35;;;;;;;0.52;0.30;;;11.00;99.90;;;;;;5055782;28;20029;-70
2022/05/21 00:49:13;;;;;;;1.95;0.70;;;11.10;99.90;;;;;;5054480;28;20520;-71
2022/05/21 00:51:52;;;;;;;0.75;0.43;;;11.10;99.90;;;;;;5056803;28;20025;-70
2022/05/21 00:54:28;;;;;;;0.20;0.20;;;11.10;99.90;;;;;;5053951;28;20040;-70
2022/05/21 00:57:09;;;;;;;0.32;0.30;;;11.10;99.90;;;;;;5055845;28;20170;-70
2022/05/21 00:59:51;;;;;;;0.70;0.30;;;11.10;99.90;;;;;;5059563;28;20040;-70
2022/05/21 01:02:28;;;;;;;1.88;1.58;;;11.10;99.90;;;;;;5054987;28;20035;-69
2022/05/21 01:04:56;;;;;;;3.15;1.77;;;11.10;99.90;;;;;;5053043;28;20043;-70
2022/05/21 01:07:24;;;;;;;1.30;0.40;;;11.10;99.90;;;;;;5055631;28;20048;-70
2022/05/21 01:09:53;;;;;;;1.10;0.60;;;11.20;99.90;;;;;;5055873;28;20396;-69
2022/05/21 01:12:21;;;;;;;0.75;0.68;;;11.20;99.90;;;;;;5067966;28;20017;-71
2022/05/21 01:14:49;;;;;;;1.02;0.40;;;11.20;99.90;;;;;;5054516;28;20052;-70
2022/05/21 01:17:19;;;;;;;0.52;0.30;;;11.30;99.90;;;;;;5051416;28;20029;-70
2022/05/21 01:20:07;;;;;;;0.88;0.40;;;11.30;99.90;;;;;;5054353;28;20021;-70
2022/05/21 01:22:39;;;;;;;1.25;0.40;;;11.30;99.90;;;;;;5056424;28;20121;-70
2022/05/21 01:25:06;;;;;;;0.22;0.22;;;11.40;99.90;;;;;;5058042;28;20064;-70
2022/05/21 01:27:32;;;;;;;0.77;0.52;;;11.40;99.90;;;;;;5049174;28;20535;-70
2022/05/21 01:29:58;;;;;;;1.45;0.73;;;11.50;99.90;;;;;;5087994;28;20125;-70
2022/05/21 01:32:24;;;;;;;1.77;1.10;;;11.50;99.90;;;;;;5054188;28;20024;-70
2022/05/21 01:34:50;;;;;;;1.15;0.55;;;11.50;99.90;;;;;;5055179;28;20055;-70
2022/05/21 01:37:16;;;;;;;1.15;0.52;;;11.60;99.90;;;;;;5051756;28;20389;-70
2022/05/21 01:39:42;;;;;;;1.25;0.68;;;11.60;99.90;;;;;;5044423;28;20028;-70
2022/05/21 01:42:09;;;;;;;0.77;0.30;;;11.70;99.90;;;;;;5038731;28;20029;-70
2022/05/21 01:44:37;;;;;;;2.03;0.82;;;11.70;99.90;;;;;;5051112;28;20040;-70
2022/05/21 01:47:05;;;;;;;0.70;0.30;;;11.70;99.90;;;;;;5050218;28;20043;-70
2022/05/21 01:49:31;;;;;;;0.85;0.40;;;11.70;99.90;;;;;;5053010;28;20464;-69
2022/05/21 01:51:56;;;;;;;1.23;0.47;;;11.70;99.90;;;;;;5054019;28;20025;-69
2022/05/21 01:54:22;;;;;;;0.85;0.63;;;11.70;99.90;;;;;;5055330;28;20439;-69
2022/05/21 01:56:48;;;;;;;1.85;0.75;;;11.70;99.90;;;;;;5056007;28;20577;-70
2022/05/21 01:59:13;;;;;;;0.52;0.40;;;11.80;99.90;;;;;;5019223;28;20033;-70
2022/05/21 02:01:39;;;;;;;1.23;0.55;;;11.80;99.90;;;;;;5056321;28;20025;-69
2022/05/21 02:04:04;;;;;;;2.55;0.80;;;11.80;99.90;;;;;;5046103;28;20036;-70
2022/05/21 02:06:32;;;;;;;2.58;1.50;;;11.80;99.90;;;;;;5048400;28;20095;-69
2022/05/21 02:08:58;;;;;;;2.70;0.50;;;11.80;99.90;;;;;;5050296;28;20118;-70
2022/05/21 02:11:24;;;;;;;0.55;0.30;;;11.90;99.90;;;;;;5054121;28;20033;-69
2022/05/21 02:13:49;;;;;;;0.80;0.30;;;11.90;99.90;;;;;;5051859;28;20049;-70
2022/05/21 02:16:15;;;;;;;1.38;0.90;;;11.90;99.90;;;;;;5054070;28;20021;-70
2022/05/21 02:18:41;;;;;;;1.58;0.77;;;11.90;99.90;;;;;;5054200;28;20035;-70
2022/05/21 02:21:07;;;;;;;0.93;0.43;;;12.00;99.90;;;;;;5068835;28;20152;-70
2022/05/21 02:23:34;;;;;;;1.05;0.60;;;12.00;99.90;;;;;;5072032;28;20033;-70
2022/05/21 02:26:00;;;;;;;0.73;0.30;;;12.00;99.90;;;;;;5054615;28;20051;-70
2022/05/21 02:28:27;;;;;;;0.93;0.40;;;12.00;99.90;;;;;;5055344;28;20021;-70
2022/05/21 02:30:52;;;;;;;1.00;0.52;;;12.10;99.90;;;;;;5051033;28;20050;-70
2022/05/21 02:33:18;;;;;;;3.38;2.00;;;12.00;99.90;;;;;;5054148;28;20115;-70
2022/05/21 02:35:44;;;;;;;1.85;0.80;;;12.00;99.90;;;;;;5054287;28;20025;-70
2022/05/21 02:40:55;;;;;;;2.45;1.10;;;12.10;99.90;;;;;;5052594;28;20095;-69
2022/05/21 02:43:21;;;;;;;0.30;0.30;;;12.10;99.90;;;;;;5055532;28;20029;-70
2022/05/21 02:45:46;;;;;;;1.42;0.60;;;12.10;99.90;;;;;;5053012;28;20037;-69
2022/05/21 02:48:12;;;;;;;2.05;1.15;;;12.10;99.90;;;;;;5053086;28;20028;-70
2022/05/21 02:50:38;;;;;;;0.93;0.43;;;12.10;99.90;;;;;;5053366;28;20037;-70
2022/05/21 02:53:06;;;;;;;1.40;0.88;;;12.20;99.90;;;;;;5049883;28;20021;-69
2022/05/21 02:55:33;;;;;;;0.68;0.40;;;12.20;99.90;;;;;;5052140;28;20554;-70
2022/05/21 02:57:58;;;;;;;0.60;0.30;;;12.20;99.90;;;;;;5053828;28;20025;-70
2022/05/21 03:00:30;;;;;;;1.67;0.68;;;12.20;99.90;;;;;;5058478;28;20037;-70
2022/05/21 03:02:57;;;;;;;2.13;0.90;;;12.20;99.90;;;;;;5052028;28;20437;-69
2022/05/21 03:05:23;;;;;;;1.00;0.35;;;12.20;99.90;;;;;;5059100;28;20048;-70
2022/05/21 03:07:50;;;;;;;0.73;0.50;;;12.30;99.90;;;;;;5056266;28;20102;-70
2022/05/21 03:10:22;;;;;;;0.85;0.40;;;12.30;99.90;;;;;;5052523;28;20028;-70
2022/05/21 03:13:08;;;;;;;1.65;0.63;;;12.30;99.90;;;;;;5071143;28;20036;-70
2022/05/21 03:15:38;;;;;;;1.02;0.70;;;12.30;99.90;;;;;;5055770;28;20103;-69
2022/05/21 03:18:06;;;;;;;1.27;0.55;;;12.30;99.90;;;;;;5053808;28;20052;-69
2022/05/21 03:20:32;;;;;;;1.23;0.50;;;12.30;99.90;;;;;;5056442;28;20025;-69
2022/05/21 03:22:58;;;;;;;0.57;0.30;;;12.30;99.90;;;;;;5053209;28;20476;-69
2022/05/21 03:25:24;;;;;;;1.23;0.60;;;12.40;99.90;;;;;;5056944;28;20055;-69
2022/05/21 03:27:51;;;;;;;1.95;0.50;;;12.40;99.90;;;;;;5056779;28;20085;-69
2022/05/21 03:30:19;;;;;;;0.98;0.30;;;12.40;99.90;;;;;;5055132;28;20041;-70
2022/05/21 03:32:45;;;;;;;0.28;0.20;;;12.40;99.90;;;;;;5057874;28;20021;-70
2022/05/21 03:35:13;;;;;;;1.60;0.88;;;12.50;99.90;;;;;;5056397;28;20052;-70
2022/05/21 03:37:39;;;;;;;0.88;0.40;;;12.50;99.90;;;;;;5058040;28;20056;-70
2022/05/21 03:40:07;;;;;;;1.30;0.68;;;12.50;99.90;;;;;;5051892;28;20043;-70
2022/05/21 03:42:33;;;;;;;1.00;0.32;;;12.50;99.90;;;;;;5055332;28;20040;-70
2022/05/21 03:44:58;;;;;;;0.68;0.30;;;12.60;99.90;;;;;;5058318;28;20029;-70
2022/05/21 03:47:24;;;;;;;0.45;0.20;;;12.60;99.90;;;;;;5060051;28;20060;-70
2022/05/21 03:49:50;;;;;;;1.42;0.73;;;12.60;99.90;;;;;;5054376;28;20120;-70
2022/05/21 03:52:15;;;;;;;1.08;0.45;;;12.60;99.90;;;;;;5057084;28;20025;-70
2022/05/21 03:54:41;;;;;;;0.63;0.40;;;12.70;99.90;;;;;;5058754;28;20021;-70
2022/05/21 03:57:07;;;;;;;0.20;0.20;;;12.70;99.90;;;;;;5058530;28;20029;-70
2022/05/21 03:59:34;;;;;;;1.05;0.60;;;12.70;99.90;;;;;;5059510;28;20029;-70
2022/05/21 04:02:01;;;;;;;0.70;0.28;;;12.70;99.90;;;;;;5057884;28;20074;-71
2022/05/21 04:04:27;;;;;;;0.55;0.30;;;12.80;99.90;;;;;;5054170;28;20037;-70
2022/05/21 04:06:52;;;;;;;0.77;0.30;;;12.80;99.90;;;;;;5053002;28;20416;-69
2022/05/21 04:09:18;;;;;;;1.58;0.70;;;12.80;99.90;;;;;;5054561;28;20028;-69
2022/05/21 04:11:44;;;;;;;0.50;0.38;;;12.80;99.90;;;;;;5048884;28;20037;-69
2022/05/21 04:14:11;;;;;;;0.35;0.35;;;12.80;99.90;;;;;;5051599;28;20032;-69
2022/05/21 04:16:37;;;;;;;0.98;0.30;;;12.80;99.90;;;;;;5061738;28;20036;-69
2022/05/21 04:19:02;;;;;;;2.28;0.77;;;12.90;99.90;;;;;;5056932;28;20144;-69
2022/05/21 04:21:28;;;;;;;0.40;0.20;;;12.90;99.90;;;;;;5048851;28;20029;-71
2022/05/21 04:23:55;;;;;;;0.65;0.30;;;12.90;99.90;;;;;;5054391;28;20024;-69
2022/05/21 04:26:21;;;;;;;1.05;0.65;;;12.90;99.90;;;;;;5060859;28;20463;-68
2022/05/21 04:28:47;;;;;;;1.02;0.73;;;13.00;99.90;;;;;;5055264;28;20084;-69
2022/05/21 04:31:12;;;;;;;1.08;0.57;;;13.00;99.90;;;;;;5055860;28;20067;-70
2022/05/21 04:33:38;;;;;;;0.90;0.30;;;13.00;99.90;;;;;;5048669;28;20057;-70
2022/05/21 04:36:19;;;;;;;0.55;0.30;;;13.00;99.90;;;;;;5061287;28;20021;-69
2022/05/21 04:38:50;;;;;;;1.47;0.70;;;13.00;99.90;;;;;;5054051;28;20098;-70
2022/05/21 04:41:16;;;;;;;0.80;0.30;;;13.00;99.90;;;;;;5048316;28;20291;-69
2022/05/21 04:43:42;;;;;;;0.50;0.43;;;13.00;99.90;;;;;;5055235;28;20104;-70
2022/05/21 04:46:09;;;;;;;1.23;0.40;;;13.00;99.90;;;;;;5054546;28;20177;-69
2022/05/21 04:48:35;;;;;;;0.70;0.30;;;13.00;99.90;;;;;;5053929;28;20017;-70
2022/05/21 04:51:03;;;;;;;0.95;0.38;;;13.00;99.90;;;;;;5046438;28;20061;-69
2022/05/21 04:53:29;;;;;;;0.30;0.20;;;13.00;99.90;;;;;;5047236;28;20360;-69
2022/05/21 04:55:55;;;;;;;0.70;0.30;;;13.00;99.90;;;;;;5056989;28;20040;-70
2022/05/21 04:58:20;;;;;;;0.25;0.20;;;13.10;99.90;;;;;;5057005;28;20044;-70
2022/05/21 05:00:46;;;;;;;0.38;0.22;;;13.10;99.90;;;;;;5046652;28;20135;-70
2022/05/21 05:03:17;;;;;;;0.38;0.22;;;13.10;99.90;;;;;;5057145;28;20021;-70
2022/05/21 05:05:44;;;;;;;0.52;0.30;;;13.10;99.90;;;;;;5055419;28;20041;-70
2022/05/21 05:08:11;;;;;;;0.73;0.30;;;13.20;99.90;;;;;;5083231;28;20041;-70
2022/05/21 05:10:37;;;;;;;0.73;0.30;;;13.30;99.90;;;;;;5050519;28;20076;-70
2022/05/21 05:13:03;;;;;;;0.35;0.20;;;13.30;99.90;;;;;;5052554;28;20052;-70
2022/05/21 05:15:29;;;;;;;0.20;0.20;;;13.40;99.90;;;;;;5066679;28;20033;-70
2022/05/21 05:18:04;;;;;;;1.08;0.63;;;13.40;99.90;;;;;;5044360;28;20079;-70
2022/05/21 05:20:30;;;;;;;0.35;0.20;;;13.40;99.90;;;;;;5050186;28;20033;-69
2022/05/21 05:22:56;;;;;;;0.50;0.20;;;13.50;99.90;;;;;;5056241;28;20136;-70
2022/05/21 05:25:22;;;;;;;0.60;0.30;;;13.60;99.90;;;;;;5054033;28;20098;-70
2022/05/21 05:27:49;;;;;;;0.30;0.20;;;13.70;99.90;;;;;;5053322;28;20029;-71
2022/05/21 05:30:16;;;;;;;0.57;0.20;;;13.70;99.90;;;;;;5059474;28;20067;-70
2022/05/21 05:32:41;;;;;;;1.05;0.43;;;13.70;99.90;;;;;;5058533;28;20629;-70
2022/05/21 05:35:08;;;;;;;0.25;0.20;;;13.70;99.90;;;;;;5045334;28;20037;-70
2022/05/21 05:37:34;;;;;;;0.20;0.20;;;13.80;99.90;;;;;;5079256;28;20017;-69
2022/05/21 05:39:59;;;;;;;0.52;0.30;;;13.80;99.90;;;;;;5049365;28;20037;-71
2022/05/21 05:42:26;;;;;;;0.70;0.30;;;13.90;99.90;;;;;;5070632;28;20022;-70
2022/05/21 05:44:51;;;;;;;0.68;0.30;;;14.00;99.90;;;;;;5051820;28;20071;-70
2022/05/21 05:47:17;;;;;;;0.20;0.20;;;13.90;99.90;;;;;;5053239;28;20025;-70
2022/05/21 05:49:43;;;;;;;0.60;0.30;;;14.10;99.90;;;;;;5046740;28;20032;-70
2022/05/21 05:52:09;;;;;;;0.40;0.20;;;14.20;99.90;;;;;;5035333;28;20028;-70
2022/05/21 05:54:36;;;;;;;1.20;0.38;;;14.20;99.90;;;;;;5076252;28;20043;-70
2022/05/21 05:57:03;;;;;;;0.43;0.22;;;14.30;99.90;;;;;;5050649;28;21556;-71
2022/05/21 06:04:57;;;;;;;0.93;0.30;;;14.90;99.90;;;;;;5053626;28;20082;-69
2022/05/21 06:07:23;;;;;;;0.43;0.30;;;15.00;99.90;;;;;;5054087;28;20798;-70
2022/05/21 06:09:49;;;;;;;0.20;0.20;;;15.00;99.90;;;;;;5056852;28;20041;-71
2022/05/21 06:12:15;;;;;;;0.30;0.20;;;15.20;99.90;;;;;;5052477;28;20040;-70
2022/05/21 06:14:41;;;;;;;0.22;0.20;;;15.40;99.90;;;;;;5053746;28;20025;-78
2022/05/21 06:17:09;;;;;;;0.68;0.28;;;15.30;99.90;;;;;;5068654;28;20052;-76
2022/05/21 06:19:35;;;;;;;0.75;0.38;;;15.30;99.90;;;;;;5049449;28;20376;-77
2022/05/21 06:22:02;;;;;;;0.47;0.20;;;15.20;99.90;;;;;;5040221;28;20025;-77
2022/05/21 06:24:28;;;;;;;0.35;0.10;;;15.10;99.90;;;;;;5038854;28;20048;-78
2022/05/21 06:26:54;;;;;;;0.57;0.20;;;15.60;99.90;;;;;;5055041;28;20035;-77
2022/05/21 06:29:20;;;;;;;0.10;0.10;;;15.60;99.90;;;;;;5028470;28;20037;-78
2022/05/21 06:31:46;;;;;;;0.38;0.20;;;15.40;99.90;;;;;;5059475;28;20116;-79
2022/05/21 06:34:12;;;;;;;0.55;0.20;;;15.40;99.90;;;;;;5035992;28;20089;-77
2022/05/21 06:36:38;;;;;;;0.20;0.13;;;15.50;99.90;;;;;;5061877;28;20036;-80
2022/05/21 06:39:04;;;;;;;0.32;0.20;;;15.60;99.90;;;;;;5044179;28;20514;-80
2022/05/21 06:41:31;;;;;;;0.57;0.20;;;15.60;99.90;;;;;;5027143;28;20104;-77
2022/05/21 06:43:57;;;;;;;0.20;0.17;;;15.80;99.90;;;;;;5066084;28;20488;-73
2022/05/21 06:46:23;;;;;;;0.43;0.20;;;15.90;99.90;;;;;;5053998;28;20092;-71
2022/05/21 06:48:49;;;;;;;0.57;0.20;;;15.90;99.90;;;;;;5058065;28;20488;-71
2022/05/21 06:51:15;;;;;;;0.30;0.20;;;15.90;99.90;;;;;;5064322;28;20021;-71
2022/05/21 06:53:42;;;;;;;0.60;0.20;;;15.80;99.90;;;;;;5060387;28;20491;-72
2022/05/21 06:56:10;;;;;;;0.73;0.30;;;16.20;99.90;;;;;;5050917;28;20035;-71
2022/05/21 06:58:36;;;;;;;0.30;0.10;;;16.30;99.90;;;;;;5064523;28;20413;-71
2022/05/21 07:01:02;;;;;;;1.45;1.35;;;16.50;99.90;;;;;;5063872;28;20391;-71
2022/05/21 07:03:27;;;;;;;0.17;0.13;;;16.80;99.90;;;;;;5062851;28;20025;-71
2022/05/21 07:08:37;;;;;;;0.38;0.20;;;17.40;99.90;;;;;;5064245;28;20064;-71
2022/05/21 07:11:03;;;;;;;0.40;0.13;;;17.70;99.90;;;;;;5064316;28;20032;-71
2022/05/21 07:13:30;;;;;;;0.55;0.20;;;17.40;99.90;;;;;;5056901;28;20014;-70
2022/05/21 07:15:57;;;;;;;0.30;0.20;;;17.80;99.90;;;;;;5057805;28;20033;-71
2022/05/21 07:18:26;;;;;;;0.47;0.40;;;17.70;99.90;;;;;;5063493;28;20416;-70
2022/05/21 07:20:53;;;;;;;0.38;0.15;;;17.30;99.90;;;;;;5064097;28;20075;-70
2022/05/21 07:23:19;;;;;;;0.35;0.10;;;17.20;99.90;;;;;;5094597;28;20051;-71
2022/05/21 07:25:45;;;;;;;0.20;0.10;;;17.00;99.90;;;;;;5062802;28;20041;-71
2022/05/21 07:28:12;;;;;;;0.65;0.20;;;17.30;99.90;;;;;;5064012;28;20080;-71
2022/05/21 07:30:39;;;;;;;0.30;0.10;;;17.40;99.90;;;;;;5063232;28;20033;-70
2022/05/21 07:33:08;;;;;;;0.47;0.15;;;17.80;99.90;;;;;;5064011;28;20083;-70
2022/05/21 07:35:36;;;;;;;0.40;0.20;;;17.80;99.90;;;;;;5055743;28;20022;-71
2022/05/21 07:38:01;;;;;;;0.40;0.20;;;17.40;99.90;;;;;;5057995;28;20369;-72
2022/05/21 07:40:27;;;;;;;0.35;0.10;;;17.30;99.90;;;;;;5041051;28;20025;-70
2022/05/21 07:42:53;;;;;;;0.85;0.20;;;17.30;99.90;;;;;;5051867;28;20047;-70
2022/05/21 07:45:20;;;;;;;0.10;0.10;;;17.20;99.90;;;;;;5052371;28;20052;-71
2022/05/21 07:47:47;;;;;;;0.40;0.15;;;17.00;99.90;;;;;;5048030;28;20029;-72
2022/05/21 07:50:14;;;;;;;0.25;0.10;;;17.10;99.90;;;;;;5045247;28;20033;-72
2022/05/21 07:52:41;;;;;;;0.17;0.10;;;17.00;99.90;;;;;;5075034;28;20033;-70
2022/05/21 07:55:08;;;;;;;0.20;0.10;;;16.80;99.90;;;;;;5058075;28;20012;-70
2022/05/21 07:57:34;;;;;;;0.32;0.13;;;16.40;99.90;;;;;;5056444;28;20032;-70
2022/05/21 07:59:59;;;;;;;0.65;0.30;;;17.20;99.90;;;;;;5056887;28;20033;-71
2022/05/21 08:02:25;;;;;;;0.60;0.20;;;17.80;99.90;;;;;;5054614;28;20139;-70
2022/05/21 08:04:51;;;;;;;0.70;0.40;;;17.90;99.90;;;;;;5056097;28;20096;-69
2022/05/21 08:07:16;;;;;;;0.10;0.10;;;17.80;99.90;;;;;;5062700;28;20037;-69
2022/05/21 08:09:43;;;;;;;0.73;0.20;;;17.60;99.90;;;;;;5054006;28;20039;-70
2022/05/21 08:12:12;;;;;;;0.10;0.10;;;17.50;99.90;;;;;;5059188;28;20029;-68
2022/05/21 08:14:38;;;;;;;0.20;0.10;;;17.80;99.90;;;;;;5072417;28;20029;-69
2022/05/21 08:17:03;;;;;;;0.28;0.10;;;18.10;99.90;;;;;;5060991;28;20158;-69
2022/05/21 08:19:29;;;;;;;0.60;0.20;;;18.70;99.90;;;;;;5056459;28;20552;-69
2022/05/21 08:26:56;;;;;;;0.65;0.20;;;19.10;99.90;;;;;;5051278;28;20047;-70
2022/05/21 08:27:24;;;;;;;0.30;0.10;;;19.90;99.90;;;;;;5055710;28;20075;-69
2022/05/21 08:29:50;;;;;;;0.10;0.10;;;20.00;99.90;;;;;;5057320;28;20025;-69
2022/05/21 08:32:17;;;;;;;0.38;0.20;;;19.80;99.90;;;;;;5061216;28;20091;-69
2022/05/21 08:34:43;;;;;;;0.10;0.10;;;19.60;99.90;;;;;;5058066;28;20041;-69
2022/05/21 08:37:09;;;;;;;0.10;0.10;;;19.50;99.90;;;;;;5062086;28;20025;-69
2022/05/21 08:39:36;;;;;;;0.28;0.13;;;19.30;99.90;;;;;;5058379;28;20048;-69
2022/05/21 08:42:13;;;;;;;0.38;0.10;;;18.90;99.90;;;;;;5056843;28;20078;-68
2022/05/21 08:44:46;;;;;;;0.45;0.20;;;18.80;99.90;;;;;;5052958;28;20060;-69
2022/05/21 08:47:30;;;;;;;0.20;0.10;;;19.20;99.90;;;;;;5053968;28;20025;-73
2022/05/21 08:50:09;;;;;;;0.20;0.10;;;19.20;99.90;;;;;;5073107;28;20070;-69
2022/05/21 08:52:42;;;;;;;0.43;0.20;;;18.90;99.90;;;;;;5053054;28;20048;-70
2022/05/21 08:55:11;;;;;;;0.15;0.10;;;18.70;99.90;;;;;;5054800;28;20029;-71
2022/05/21 08:57:54;;;;;;;0.17;0.10;;;19.40;99.90;;;;;;5084855;28;20112;-70
2022/05/21 09:00:23;;;;;;;0.10;0.10;;;20.20;99.90;;;;;;5054386;28;20098;-69
2022/05/21 09:02:50;;;;;;;0.20;0.10;;;20.60;99.90;;;;;;5054570;28;20021;-69
2022/05/21 09:05:18;;;;;;;0.10;0.10;;;21.20;99.90;;;;;;5042468;28;20537;-69
2022/05/21 09:08:11;;;;;;;0.47;0.20;;;21.00;99.90;;;;;;5048944;28;20119;-70
2022/05/21 09:10:52;;;;;;;0.38;0.10;;;20.20;99.90;;;;;;5048183;28;20044;-69
2022/05/21 09:13:30;;;;;;;0.32;0.10;;;19.60;99.90;;;;;;5062323;28;20033;-69
2022/05/21 09:18:40;;;;;;;0.28;0.10;;;19.80;99.90;;;;;;5058536;28;20067;-69
2022/05/21 09:21:11;;;;;;;0.17;0.10;;;19.60;99.90;;;;;;5058478;28;20021;-69
2022/05/21 09:23:58;;;;;;;0.40;0.10;;;19.10;99.90;;;;;;5059366;28;20528;-69
2022/05/21 09:26:48;;;;;;;0.57;0.10;;;19.10;99.90;;;;;;5093012;28;20107;-69
2022/05/21 09:29:28;;;;;;;0.47;0.17;;;19.20;99.90;;;;;;5094201;28;20025;-69
2022/05/21 09:31:55;;;;;;;0.17;0.10;;;18.90;99.90;;;;;;5080096;28;20098;-68
2022/05/21 09:34:33;;;;;;;0.60;0.20;;;19.40;99.90;;;;;;5051266;28;20044;-70
2022/05/21 09:37:00;;;;;;;0.30;0.10;;;19.30;99.90;;;;;;5058357;28;20052;-69
2022/05/21 09:39:34;;;;;;;0.38;0.10;;;19.20;99.90;;;;;;5059728;28;20032;-68
2022/05/21 09:42:09;;;;;;;0.30;0.10;;;18.90;99.90;;;;;;5057826;28;20115;-69
2022/05/21 09:47:24;;;;;;;0.28;0.10;;;18.90;99.90;;;;;;5050205;28;20048;-67
2022/05/21 09:50:08;;;;;;;0.25;0.10;;;18.90;99.90;;;;;;5060561;28;20353;-67
2022/05/21 09:52:34;;;;;;;0.60;0.20;;;18.70;99.90;;;;;;5050476;28;20115;-67
2022/05/21 09:55:02;;;;;;;0.55;0.20;;;18.30;99.90;;;;;;5052713;28;20117;-67
2022/05/21 09:57:42;;;;;;;0.20;0.10;;;18.40;99.90;;;;;;5054187;28;20449;-66
2022/05/21 10:00:26;;;;;;;0.10;0.10;;;19.10;99.90;;;;;;5040513;28;20034;-67
2022/05/21 10:02:57;;;;;;;0.60;0.20;;;19.50;99.90;;;;;;5047038;28;20153;-68
2022/05/21 10:05:45;;;;;;;0.32;0.13;;;19.50;99.90;;;;;;5052595;28;20034;-68
2022/05/21 10:11:30;;;;;;;0.17;0.10;;;20.10;99.90;;;;;;5059300;28;20063;-68
2022/05/21 10:14:10;;;;;;;0.10;0.10;;;19.20;99.90;;;;;;5060263;28;20037;-68
2022/05/21 10:16:46;;;;;;;0.50;0.25;;;19.20;99.90;;;;;;5056640;28;20053;-67
2022/05/21 10:19:44;;;;;;;0.47;0.13;;;18.80;99.90;;;;;;5057955;28;20128;-68
2022/05/21 10:22:44;;;;;;;0.68;0.20;;;18.30;99.90;;;;;;5045377;28;20032;-67
2022/05/21 10:25:15;;;;;;;0.17;0.10;;;18.30;99.90;;;;;;5044961;28;20068;-70
2022/05/21 10:28:08;;;;;;;0.40;0.10;;;19.20;99.90;;;;;;5058584;28;20065;-67
2022/05/21 10:30:40;;;;;;;0.10;0.10;;;20.00;99.90;;;;;;5057411;28;20056;-67
2022/05/21 10:33:11;;;;;;;;;;;20.60;99.90;;;;;;5056651;28;20033;-68
2022/05/21 10:36:00;;;;;;;0.47;0.20;;;20.90;99.90;;;;;;5040143;28;19905;-68
2022/05/21 10:38:44;;;;;;;0.28;0.10;;;20.20;99.90;;;;;;5074440;28;20029;-67
2022/05/21 10:41:27;;;;;;;0.10;0.10;;;20.00;99.90;;;;;;5049470;28;20100;-67
2022/05/21 10:44:34;;;;;;;0.10;0.10;;;20.90;99.90;;;;;;5057781;28;20021;-67
2022/05/21 10:47:10;;;;;;;0.32;0.32;;;20.90;99.90;;;;;;5089357;28;20037;-67
2022/05/21 10:49:38;;;;;;;0.10;0.10;;;21.20;99.90;;;;;;5053875;28;21538;-67
2022/05/21 10:52:34;;;;;;;0.10;0.10;;;21.50;99.90;;;;;;5047382;28;20367;-67
2022/05/21 10:55:09;;;;;;;0.00;0.00;;;21.80;94.80;;;;;;5054690;28;20029;-68
2022/05/21 10:57:44;;;;;;;0.10;0.10;;;21.90;93.00;;;;;;5055164;28;20025;-67
2022/05/21 11:00:19;;;;;;;0.10;0.10;;;22.20;99.90;;;;;;5054042;28;20025;-67
2022/05/21 11:03:21;;;;;;;0.10;0.10;;;22.30;91.30;;;;;;5042007;28;20025;-67
2022/05/21 11:06:02;;;;;;;0.00;0.00;;;22.60;84.00;;;;;;5058359;28;20045;-67
2022/05/21 11:08:27;;;;;;;0.08;0.00;;;22.50;86.10;;;;;;5051605;28;20113;-67
2022/05/21 11:11:22;;;;;;;0.20;0.10;;;22.30;79.00;;;;;;5056594;28;20025;-67
2022/05/21 11:13:59;;;;;;;0.20;0.10;;;23.30;80.50;;;;;;5043581;28;20057;-67
2022/05/21 11:16:35;;;;;;;0.25;0.20;;;23.20;85.40;;;;;;5057886;28;20029;-68
2022/05/21 11:19:13;;;;;;;0.10;0.10;;;23.10;67.70;;;;;;5058003;28;20021;-67
2022/05/21 11:21:48;;;;;;;0.00;0.00;;;23.80;77.80;;;;;;5059489;28;20021;-67
2022/05/21 11:24:21;;;;;;;0.30;0.10;;;23.70;67.70;;;;;;5051447;28;20034;-68
2022/05/21 11:26:57;;;;;;;0.00;0.00;;;23.80;73.90;;;;;;5043480;28;20053;-68
2022/05/21 11:29:53;;;;;;;0.03;0.03;;;22.80;68.50;;;;;;5045314;28;20022;-67
2022/05/21 11:38:18;;;;;;;0.00;0.00;;;22.80;59.30;;;;;;5053215;28;20047;-67
2022/05/21 11:43:54;;;;;;;0.20;0.10;;;22.70;62.50;;;;;;5044725;28;20072;-68
2022/05/21 11:46:35;;;;;;;0.05;0.05;;;23.00;61.60;;;;;;5051826;28;20067;-67
2022/05/21 11:49:29;;;;;;;0.57;0.50;;;23.20;66.00;;;;;;5057811;28;20024;-67
2022/05/21 11:51:58;;;;;;;0.10;0.10;;;23.10;64.80;;;;;;5043162;28;20026;-67
2022/05/21 11:55:09;;;;;;;0.10;0.10;;;22.80;64.60;;;;;;5048373;28;20367;-68
2022/05/21 11:57:43;;;;;;;0.00;0.00;;;23.00;65.20;;;;;;5016754;28;20041;-67
2022/05/21 12:00:18;;;;;;;0.10;0.10;;;23.00;66.20;;;;;;5042688;28;20033;-68
2022/05/21 12:03:06;;;;;;;0.00;0.00;;;22.40;62.80;;;;;;5043258;28;20029;-67
2022/05/21 12:05:40;;;;;;;0.10;0.10;;;22.40;65.40;;;;;;5038227;28;20053;-68
2022/05/21 12:08:14;;;;;;;0.25;0.17;;;22.40;67.80;;;;;;5054076;28;20387;-68
2022/05/21 12:11:04;;;;;;;0.10;0.10;;;22.80;66.80;;;;;;5060013;28;20025;-68
2022/05/21 12:13:36;;;;;;;0.00;0.00;;;22.90;65.90;;;;;;5061484;28;20067;-68
2022/05/21 12:16:22;;;;;;;0.00;0.00;;;23.00;64.50;;;;;;5061306;28;20025;-68
2022/05/21 12:18:52;;;;;;;0.10;0.10;;;23.10;66.50;;;;;;5061519;28;20033;-68
2022/05/21 12:21:30;;;;;;;0.10;0.10;;;23.60;66.60;;;;;;5052044;28;20039;-68
2022/05/21 12:23:56;;;;;;;0.10;0.10;;;23.80;63.00;;;;;;5062829;28;20036;-68
2022/05/21 12:26:24;;;;;;;0.10;0.10;;;23.30;61.50;;;;;;5055013;28;20038;-67
2022/05/21 12:28:56;;;;;;;0.03;0.03;;;23.70;59.90;;;;;;5062269;28;20021;-68
2022/05/21 12:31:26;;;;;;;0.10;0.10;;;23.50;61.80;;;;;;5057374;28;20025;-68
2022/05/21 12:34:42;;;;;;;0.10;0.10;;;23.40;58.50;;;;;;5062704;28;20025;-69
2022/05/21 12:37:23;;;;;;;0.00;0.00;;;23.40;59.70;;;;;;5032534;28;20045;-68
2022/05/21 12:40:01;;;;;;;0.00;0.00;;;23.10;61.40;;;;;;5049605;28;20143;-68
2022/05/21 12:42:42;;;;;;;0.05;0.05;;;22.90;60.30;;;;;;5058714;28;20025;-68
2022/05/21 12:45:08;;;;;;;0.10;0.10;;;23.10;61.00;;;;;;5062091;28;20128;-68
2022/05/21 12:47:44;;;;;;;0.05;0.05;;;23.50;61.00;;;;;;5053397;28;20091;-68
2022/05/21 12:50:18;;;;;;;0.28;0.10;;;23.40;63.20;;;;;;5056765;28;20016;-68
2022/05/21 12:52:53;;;;;;;0.17;0.10;;;23.10;64.00;;;;;;5061236;28;20045;-68
2022/05/21 12:55:31;;;;;;;0.05;0.05;;;22.70;59.40;;;;;;5062713;28;20029;-68
2022/05/21 12:58:09;;;;;;;0.10;0.10;;;23.00;63.80;;;;;;5053329;28;20041;-68
2022/05/21 13:00:37;;;;;;;0.40;0.10;;;23.10;63.10;;;;;;5060652;28;20098;-68
2022/05/21 13:03:08;;;;;;;0.10;0.10;;;23.00;62.60;;;;;;5045242;28;20571;-68
2022/05/21 13:05:55;;;;;;;0.10;0.10;;;23.70;68.20;;;;;;5058562;28;20200;-68
2022/05/21 13:08:23;;;;;;;0.10;0.10;;;24.00;65.70;;;;;;5052901;28;20042;-68
2022/05/21 13:11:08;;;;;;;0.10;0.10;;;23.70;63.70;;;;;;5041541;28;20025;-68
2022/05/21 13:13:38;;;;;;;0.20;0.10;;;23.30;63.20;;;;;;5052478;28;20051;-68
2022/05/21 13:16:07;;;;;;;0.00;0.00;;;22.60;63.30;;;;;;5050262;28;20034;-67
2022/05/21 13:18:42;;;;;;;0.10;0.10;;;22.10;65.80;;;;;;5044493;28;20035;-67
2022/05/21 13:21:42;;;;;;;0.00;0.00;;;21.90;73.50;;;;;;5051448;28;20037;-68
2022/05/21 13:24:25;;;;;;;0.10;0.10;;;21.60;77.60;;;;;;5060873;28;20053;-68
2022/05/21 13:27:10;;;;;;;0.10;0.10;;;21.70;82.80;;;;;;5060924;28;20166;-67
2022/05/21 13:29:37;;;;;;;0.17;0.10;;;22.00;73.10;;;;;;5053810;28;20033;-68
2022/05/21 13:32:24;;;;;;;0.08;0.08;;;22.00;68.30;;;;;;5041497;28;20096;-68
2022/05/21 13:34:52;;;;;;;0.20;0.20;;;22.40;81.40;;;;;;5063952;28;20021;-68
2022/05/21 13:37:23;;;;;;;0.10;0.03;;;22.70;79.70;;;;;;5061662;28;20033;-68